Time;durP1;ratioP1;P1;durP2;ratioP2;P2;SDS_P1;SDS_P2;PMS_P1;PMS_P2;Temp;Humidity;BMP_temperature;BMP_pressure;BME280_temperature;BME280_humidity;BME280_pressure;Samples;Min_cycle;Max_cycle;Signal;HPM_P1;HPM_P2
2024/03/12 00:00:41;;;;;;;21.10;12.30;;;;;;;6.01;81.00;101380.47;107512;1251;107324;-71
2024/03/12 00:03:30;;;;;;;25.20;12.10;;;;;;;6.00;80.92;101374.65;107521;1251;109933;-71
2024/03/12 00:05:59;;;;;;;28.10;12.50;;;;;;;6.00;81.20;101366.64;107551;1253;97903;-72
2024/03/12 00:08:28;;;;;;;30.70;13.20;;;;;;;6.02;81.25;101358.31;107559;1253;97925;-67
2024/03/12 00:10:57;;;;;;;24.00;12.10;;;;;;;6.03;81.49;101354.31;107502;1251;112057;-67
2024/03/12 00:13:26;;;;;;;24.30;11.70;;;;;;;6.04;81.40;101348.02;107603;1251;108284;-69
2024/03/12 00:16:05;;;;;;;18.90;10.70;;;;;;;6.08;81.30;101350.11;107547;1253;108148;-67
2024/03/12 00:18:34;;;;;;;24.20;11.50;;;;;;;6.06;81.22;101339.39;107502;1254;97925;-69
2024/03/12 00:21:02;;;;;;;36.10;11.80;;;;;;;6.01;81.33;101332.54;107544;1253;98441;-67
2024/03/12 00:23:31;;;;;;;23.00;12.70;;;;;;;5.98;81.28;101334.83;107632;1251;113023;-71
2024/03/12 00:26:00;;;;;;;26.80;11.00;;;;;;;5.99;81.38;101326.80;107555;1251;107008;-70
2024/03/12 00:28:28;;;;;;;23.00;11.60;;;;;;;6.00;81.19;101323.72;107562;1255;107733;-69
2024/03/12 00:30:57;;;;;;;22.90;11.10;;;;;;;6.00;80.87;101315.88;107489;1251;97819;-68
2024/03/12 00:33:28;;;;;;;25.90;11.40;;;;;;;6.00;81.04;101315.17;107524;1250;97717;-70
2024/03/12 00:35:59;;;;;;;19.10;11.20;;;;;;;5.98;80.86;101307.23;107576;1251;111670;-70
2024/03/12 00:38:29;;;;;;;22.60;12.30;;;;;;;6.02;81.39;101307.73;107611;1255;108224;-70
2024/03/12 00:40:57;;;;;;;22.60;10.70;;;;;;;6.04;80.89;101305.83;107611;1251;108526;-71
2024/03/12 00:43:26;;;;;;;21.40;11.30;;;;;;;6.08;80.87;101299.73;107558;1251;97827;-69
2024/03/12 00:45:56;;;;;;;21.60;12.10;;;;;;;6.07;80.57;101299.23;107559;1252;99239;-69
2024/03/12 00:48:25;;;;;;;28.20;11.40;;;;;;;6.08;80.69;101290.31;107674;1251;112203;-69
2024/03/12 00:50:55;;;;;;;29.00;10.90;;;;;;;6.08;80.57;101287.80;107733;1251;107662;-71
2024/03/12 00:53:24;;;;;;;24.20;11.40;;;;;;;6.09;80.47;101279.91;107870;1253;108350;-71
2024/03/12 00:55:53;;;;;;;20.20;11.10;;;;;;;6.07;80.43;101279.63;107605;1251;97731;-70
2024/03/12 00:58:25;;;;;;;28.30;11.40;;;;;;;6.06;80.39;101276.13;107852;1252;97766;-71
2024/03/12 01:00:53;;;;;;;18.30;10.70;;;;;;;6.06;80.50;101272.95;107867;1251;112025;-72
2024/03/12 01:03:23;;;;;;;28.10;12.50;;;;;;;6.06;80.49;101269.19;107759;1251;108388;-72
2024/03/12 01:05:53;;;;;;;17.80;10.80;;;;;;;6.08;80.16;101267.66;107657;1251;108493;-72
2024/03/12 01:08:23;;;;;;;18.40;10.70;;;;;;;6.09;80.17;101268.35;107715;1251;97979;-68
2024/03/12 01:10:52;;;;;;;26.70;11.80;;;;;;;6.10;80.07;101270.05;107491;1250;97800;-67
2024/03/12 01:13:21;;;;;;;23.90;12.90;;;;;;;6.10;80.14;101266.45;107512;1251;111284;-67
2024/03/12 01:15:52;;;;;;;28.60;12.20;;;;;;;6.10;80.31;101262.73;107489;1251;107957;-68
2024/03/12 01:18:21;;;;;;;19.90;11.00;;;;;;;6.08;80.08;101261.27;107434;1251;108457;-68
2024/03/12 01:20:50;;;;;;;25.00;11.50;;;;;;;6.06;80.36;101254.27;107592;1251;97816;-67
2024/03/12 01:23:19;;;;;;;26.60;12.50;;;;;;;6.03;80.34;101255.14;107794;1251;97816;-68
2024/03/12 01:25:48;;;;;;;23.10;11.60;;;;;;;6.04;80.40;101254.77;107897;1253;111509;-70
2024/03/12 01:28:17;;;;;;;21.90;12.10;;;;;;;6.03;80.68;101250.73;107900;1253;107582;-68
2024/03/12 01:30:47;;;;;;;28.60;11.40;;;;;;;6.06;80.66;101246.23;107911;1250;108688;-68
2024/03/12 01:33:18;;;;;;;22.30;11.60;;;;;;;6.11;80.67;101235.62;107690;1251;97819;-66
2024/03/12 01:35:47;;;;;;;24.70;11.10;;;;;;;6.15;80.25;101238.77;107585;1251;98383;-67
2024/03/12 01:38:16;;;;;;;26.60;11.60;;;;;;;6.20;80.32;101243.77;107635;1251;111824;-68
2024/03/12 01:40:46;;;;;;;22.80;10.70;;;;;;;6.22;80.05;101246.16;107591;1251;108798;-67
2024/03/12 01:43:15;;;;;;;28.00;13.20;;;;;;;6.20;80.09;101242.51;107610;1251;108815;-69
2024/03/12 01:45:45;;;;;;;25.60;12.20;;;;;;;6.17;80.24;101237.38;107510;1251;97903;-69
2024/03/12 01:48:15;;;;;;;21.10;11.30;;;;;;;6.14;80.16;101234.88;107555;1253;97904;-69
2024/03/12 01:50:44;;;;;;;28.30;11.50;;;;;;;6.12;80.17;101229.13;107511;1250;111292;-70
2024/03/12 01:53:12;;;;;;;25.40;11.60;;;;;;;6.09;80.44;101235.41;107488;1251;108723;-68
2024/03/12 01:55:44;;;;;;;24.60;12.70;;;;;;;6.08;80.76;101242.54;107593;1256;106981;-71
2024/03/12 01:58:17;;;;;;;24.70;11.30;;;;;;;6.09;80.58;101243.41;107591;1251;97879;-70
2024/03/12 02:00:45;;;;;;;22.40;11.60;;;;;;;6.12;80.71;101235.70;107657;1251;99062;-71
2024/03/12 02:03:18;;;;;;;23.60;11.60;;;;;;;6.20;81.07;101236.28;107633;1250;112190;-70
2024/03/12 02:05:48;;;;;;;23.60;11.10;;;;;;;6.25;80.64;101233.27;107905;1251;107841;-69
2024/03/12 02:08:16;;;;;;;23.70;11.30;;;;;;;6.27;80.69;101229.65;107637;1251;107760;-68
2024/03/12 02:10:45;;;;;;;22.70;11.00;;;;;;;6.34;80.80;101231.00;107516;1251;97816;-69
2024/03/12 02:13:14;;;;;;;23.00;11.40;;;;;;;6.35;80.49;101225.59;107573;1253;97860;-69
2024/03/12 02:15:43;;;;;;;24.80;10.90;;;;;;;6.31;80.58;101229.94;107522;1250;112391;-70
2024/03/12 02:18:14;;;;;;;24.20;11.10;;;;;;;6.28;80.61;101229.00;107705;1251;108960;-69
2024/03/12 02:20:43;;;;;;;28.50;11.20;;;;;;;6.28;80.60;101228.15;107494;1251;108817;-70
2024/03/12 02:23:11;;;;;;;21.80;10.50;;;;;;;6.26;80.71;101226.46;107474;1251;97896;-66
2024/03/12 02:25:42;;;;;;;24.80;11.20;;;;;;;6.25;80.71;101222.79;107531;1251;98380;-67
2024/03/12 02:28:11;;;;;;;31.80;12.00;;;;;;;6.30;80.99;101223.42;107619;1251;111107;-67
2024/03/12 02:30:40;;;;;;;28.70;11.90;;;;;;;6.36;81.58;101227.98;107623;1251;107708;-69
2024/03/12 02:33:09;;;;;;;20.90;10.20;;;;;;;6.39;80.98;101220.15;107575;1251;108801;-67
2024/03/12 02:35:37;;;;;;;26.20;10.80;;;;;;;6.40;80.99;101219.17;107597;1251;97854;-69
2024/03/12 02:38:08;;;;;;;22.90;11.10;;;;;;;6.47;80.93;101219.84;107643;1251;97642;-69
2024/03/12 02:40:37;;;;;;;28.70;11.30;;;;;;;6.47;80.66;101213.23;107642;1251;111844;-69
2024/03/12 02:43:06;;;;;;;28.70;11.90;;;;;;;6.42;80.83;101208.70;107569;1254;107376;-69
2024/03/12 02:45:35;;;;;;;29.60;10.90;;;;;;;6.38;80.84;101202.58;107646;1251;108248;-69
2024/03/12 02:48:04;;;;;;;22.20;9.90;;;;;;;6.37;80.87;101189.43;107494;1251;97837;-69
2024/03/12 02:50:32;;;;;;;17.80;10.20;;;;;;;6.35;81.08;101188.84;107562;1254;97821;-70
2024/03/12 02:53:02;;;;;;;25.30;10.20;;;;;;;6.35;80.95;101189.60;107523;1250;112154;-69
2024/03/12 02:55:30;;;;;;;26.90;10.10;;;;;;;6.34;81.31;101193.35;107546;1251;107482;-69
2024/03/12 02:57:59;;;;;;;28.10;10.00;;;;;;;6.36;81.14;101190.90;107684;1250;108619;-70
2024/03/12 03:00:28;;;;;;;19.90;10.00;;;;;;;6.43;81.23;101192.12;107476;1251;97949;-69
2024/03/12 03:02:57;;;;;;;22.90;10.40;;;;;;;6.47;81.22;101188.45;107495;1250;98389;-68
2024/03/12 03:05:28;;;;;;;23.70;11.00;;;;;;;6.51;81.12;101179.44;107580;1251;112508;-69
2024/03/12 03:07:56;;;;;;;19.80;9.70;;;;;;;6.55;80.86;101177.23;107550;1251;107691;-68
2024/03/12 03:10:24;;;;;;;26.30;10.00;;;;;;;6.57;80.74;101175.33;107581;1251;107389;-68
2024/03/12 03:12:53;;;;;;;21.90;9.90;;;;;;;6.55;80.51;101165.48;107476;1251;98299;-68
2024/03/12 03:15:22;;;;;;;23.40;9.00;;;;;;;6.51;80.67;101174.98;107713;1251;97852;-68
2024/03/12 03:17:52;;;;;;;20.10;9.90;;;;;;;6.52;80.68;101168.39;107770;1251;110951;-70
2024/03/12 03:20:21;;;;;;;26.40;10.70;;;;;;;6.49;80.80;101172.63;107883;1251;109811;-70
2024/03/12 03:22:50;;;;;;;26.10;10.20;;;;;;;6.49;81.14;101163.59;107644;1251;108553;-70
2024/03/12 03:25:19;;;;;;;29.70;10.30;;;;;;;6.54;81.47;101168.20;107530;1251;97891;-69
2024/03/12 03:27:47;;;;;;;21.90;9.90;;;;;;;6.62;81.55;101160.77;107628;1251;97982;-70
2024/03/12 03:30:18;;;;;;;24.70;9.50;;;;;;;6.67;81.30;101159.73;107652;1256;110791;-68
2024/03/12 03:32:48;;;;;;;21.30;9.90;;;;;;;6.69;81.08;101153.00;107632;1249;108799;-67
2024/03/12 03:35:17;;;;;;;23.40;9.80;;;;;;;6.72;80.99;101152.61;107651;1251;108442;-67
2024/03/12 03:37:47;;;;;;;16.00;9.20;;;;;;;6.72;80.81;101147.44;107589;1251;97844;-73
2024/03/12 03:40:22;;;;;;;24.30;10.30;;;;;;;6.68;80.71;101150.54;107639;1251;97996;-70
2024/03/12 03:42:55;;;;;;;25.10;11.60;;;;;;;6.63;81.09;101152.16;107612;1251;111670;-72
2024/03/12 03:45:24;;;;;;;26.30;10.10;;;;;;;6.60;80.81;101154.69;107615;1251;108596;-69
2024/03/12 03:47:53;;;;;;;27.50;9.80;;;;;;;6.60;80.94;101153.05;107590;1251;106584;-70
2024/03/12 03:50:21;;;;;;;29.50;10.90;;;;;;;6.60;81.00;101159.27;107592;1254;97723;-69
2024/03/12 03:52:52;;;;;;;24.10;8.60;;;;;;;6.61;81.27;101151.55;107578;1251;98378;-69
2024/03/12 03:55:22;;;;;;;24.40;9.60;;;;;;;6.66;81.31;101152.48;107611;1251;111377;-69
2024/03/12 03:57:51;;;;;;;24.50;9.20;;;;;;;6.74;81.38;101144.28;107583;1251;107188;-71
2024/03/12 04:00:30;;;;;;;20.10;9.40;;;;;;;6.78;81.04;101150.96;107645;1251;106518;-69
2024/03/12 04:02:59;;;;;;;27.50;10.30;;;;;;;6.80;80.79;101147.47;107681;1251;97881;-69
2024/03/12 04:05:27;;;;;;;18.20;10.10;;;;;;;6.84;80.95;101146.66;107618;1251;97855;-68
2024/03/12 04:07:56;;;;;;;21.20;9.10;;;;;;;6.85;80.52;101137.85;107758;1251;111477;-70
2024/03/12 04:10:24;;;;;;;19.40;8.70;;;;;;;6.85;80.52;101141.27;107669;1250;107998;-69
2024/03/12 04:12:55;;;;;;;17.50;9.40;;;;;;;6.84;80.44;101135.78;107601;1251;108319;-72
2024/03/12 04:15:28;;;;;;;29.00;10.30;;;;;;;6.81;80.41;101135.06;107604;1251;97732;-71
2024/03/12 04:17:58;;;;;;;19.70;8.60;;;;;;;6.79;80.57;101135.91;107617;1251;97746;-69
2024/03/12 04:20:26;;;;;;;23.60;9.20;;;;;;;6.80;80.57;101134.11;107643;1251;111805;-70
2024/03/12 04:22:55;;;;;;;20.50;8.90;;;;;;;6.79;80.84;101126.65;107618;1254;108257;-69
2024/03/12 04:25:24;;;;;;;19.10;9.10;;;;;;;6.80;80.61;101126.92;107577;1250;107802;-70
2024/03/12 04:27:53;;;;;;;18.50;8.90;;;;;;;6.81;80.55;101117.42;107559;1251;97848;-70
2024/03/12 04:30:22;;;;;;;18.50;8.70;;;;;;;6.81;80.94;101107.61;107616;1250;97813;-67
2024/03/12 04:32:51;;;;;;;24.30;9.60;;;;;;;6.84;80.84;101111.88;107592;1253;110730;-67
2024/03/12 04:35:20;;;;;;;27.10;8.50;;;;;;;6.85;80.52;101116.27;107531;1251;108161;-67
2024/03/12 04:37:50;;;;;;;24.10;9.00;;;;;;;6.84;80.71;101118.84;107633;1251;108195;-67
2024/03/12 04:40:21;;;;;;;19.00;8.70;;;;;;;6.82;80.54;101118.59;107603;1251;97922;-66
2024/03/12 04:42:49;;;;;;;20.00;8.90;;;;;;;6.81;80.68;101119.75;107552;1256;97713;-70
2024/03/12 04:45:20;;;;;;;19.70;9.20;;;;;;;6.80;80.88;101120.89;107620;1250;111716;-71
2024/03/12 04:47:49;;;;;;;25.00;9.00;;;;;;;6.85;80.87;101122.89;107640;1250;107290;-69
2024/03/12 04:50:22;;;;;;;25.80;8.80;;;;;;;6.88;80.50;101122.29;107577;1251;108406;-73
2024/03/12 04:52:52;;;;;;;18.60;8.40;;;;;;;6.89;80.45;101119.39;107568;1251;97704;-69
2024/03/12 04:55:20;;;;;;;25.30;9.10;;;;;;;6.91;80.43;101116.59;107519;1251;97905;-67
2024/03/12 04:57:49;;;;;;;20.40;7.50;;;;;;;6.93;80.21;101122.02;107608;1251;111736;-70
2024/03/12 05:00:21;;;;;;;16.80;7.80;;;;;;;6.94;79.87;101119.60;107619;1251;107134;-70
2024/03/12 05:02:50;;;;;;;24.00;9.60;;;;;;;6.94;79.83;101115.17;107569;1251;108805;-69
2024/03/12 05:05:20;;;;;;;24.10;8.00;;;;;;;6.92;79.76;101113.67;107619;1251;97842;-71
2024/03/12 05:07:50;;;;;;;27.40;9.80;;;;;;;6.92;79.72;101107.95;107532;1251;98348;-66
2024/03/12 05:10:24;;;;;;;19.40;9.10;;;;;;;6.89;79.67;101106.71;107654;1251;111088;-70
2024/03/12 05:12:52;;;;;;;25.50;8.20;;;;;;;6.88;79.82;101103.95;107445;1251;108673;-70
2024/03/12 05:15:21;;;;;;;29.70;9.90;;;;;;;6.94;79.98;101100.36;107576;1251;108191;-70
2024/03/12 05:17:52;;;;;;;21.90;9.40;;;;;;;7.00;80.09;101099.77;107598;1248;97897;-70
2024/03/12 05:20:23;;;;;;;17.90;8.40;;;;;;;7.03;79.84;101086.19;107761;1248;97848;-67
2024/03/12 05:22:53;;;;;;;19.60;8.70;;;;;;;7.11;79.90;101087.39;107879;1253;112723;-67
2024/03/12 05:25:38;;;;;;;16.30;8.30;;;;;;;7.17;79.54;101095.41;107869;1253;109367;-70
2024/03/12 05:28:09;;;;;;;24.80;9.70;;;;;;;7.15;79.03;101103.77;107634;1250;105645;-69
2024/03/12 05:30:42;;;;;;;22.90;9.30;;;;;;;7.11;78.99;101106.52;107683;1250;97867;-69
2024/03/12 05:33:14;;;;;;;19.20;10.30;;;;;;;7.10;78.80;101106.23;107724;1250;97729;-70
2024/03/12 05:35:47;;;;;;;22.10;9.50;;;;;;;7.13;79.07;101103.85;107561;1250;111876;-70
2024/03/12 05:38:31;;;;;;;27.90;9.40;;;;;;;7.14;79.01;101108.09;107611;1249;107068;-70
2024/03/12 05:49:16;;;;;;;31.00;10.10;;;;;;;7.16;79.38;101121.66;107595;1253;111792;-70
2024/03/12 05:51:45;;;;;;;26.60;10.30;;;;;;;7.20;79.17;101120.70;107574;1250;108296;-70
2024/03/12 05:54:13;;;;;;;27.30;11.40;;;;;;;7.22;79.07;101116.11;107574;1255;107184;-70
2024/03/12 05:56:42;;;;;;;27.90;11.40;;;;;;;7.22;78.92;101111.15;107388;1251;97850;-70
2024/03/12 05:59:11;;;;;;;23.80;10.60;;;;;;;7.24;78.92;101111.35;107536;1251;96242;-70
2024/03/12 06:01:39;;;;;;;22.10;11.00;;;;;;;7.26;79.15;101099.41;107469;1251;111252;-70
2024/03/12 06:04:08;;;;;;;26.90;10.70;;;;;;;7.28;78.86;101098.06;107591;1251;108253;-70
2024/03/12 06:06:36;;;;;;;41.00;11.50;;;;;;;7.24;78.86;101093.84;107405;1253;108377;-71
2024/03/12 06:09:09;;;;;;;24.00;10.70;;;;;;;7.20;78.79;101094.09;107517;1250;97772;-71
2024/03/12 06:11:39;;;;;;;23.30;11.00;;;;;;;7.18;78.75;101096.58;107634;1251;97838;-68
2024/03/12 06:14:09;;;;;;;32.90;11.50;;;;;;;7.17;78.87;101091.47;107441;1251;111875;-68
2024/03/12 06:16:38;;;;;;;29.20;10.60;;;;;;;7.16;78.91;101083.33;107486;1250;108344;-69
2024/03/12 06:19:08;;;;;;;27.90;11.30;;;;;;;7.12;79.12;101083.45;107479;1249;108603;-68
2024/03/12 06:21:37;;;;;;;34.20;12.40;;;;;;;7.06;79.01;101091.66;107484;1250;97863;-68
2024/03/12 06:24:06;;;;;;;26.60;11.60;;;;;;;7.02;79.43;101095.88;107511;1251;97822;-71
2024/03/12 06:26:34;;;;;;;29.90;10.60;;;;;;;6.99;79.92;101098.91;107456;1251;111666;-72
2024/03/12 06:29:06;;;;;;;27.60;12.70;;;;;;;7.00;80.12;101094.05;107505;1249;108066;-72
2024/03/12 06:31:34;;;;;;;31.60;11.60;;;;;;;7.00;80.11;101100.11;107465;1250;107436;-71
2024/03/12 06:34:04;;;;;;;24.90;10.90;;;;;;;7.01;79.87;101092.77;107460;1250;97900;-72
2024/03/12 06:36:33;;;;;;;24.60;12.10;;;;;;;7.02;80.45;101089.11;107491;1250;97811;-72
2024/03/12 06:39:04;;;;;;;35.10;13.40;;;;;;;7.03;80.58;101088.31;107431;1250;111895;-70
2024/03/12 06:41:34;;;;;;;22.50;11.40;;;;;;;7.04;80.26;101089.14;107382;1251;108502;-72
2024/03/12 06:44:07;;;;;;;31.30;12.80;;;;;;;7.04;80.20;101093.60;107560;1251;107742;-70
2024/03/12 06:46:37;;;;;;;25.60;12.30;;;;;;;7.01;80.34;101092.58;107447;1250;97862;-68
2024/03/12 06:49:09;;;;;;;32.20;12.10;;;;;;;6.98;80.38;101088.52;107429;1254;97874;-69
2024/03/12 06:51:38;;;;;;;30.70;12.60;;;;;;;6.95;80.51;101094.02;107520;1250;111687;-73
2024/03/12 06:54:09;;;;;;;27.00;12.30;;;;;;;6.95;80.65;101097.63;107412;1251;108115;-71
2024/03/12 06:56:46;;;;;;;29.10;12.30;;;;;;;6.94;80.74;101095.90;107456;1254;108503;-73
2024/03/12 06:59:15;;;;;;;31.70;11.60;;;;;;;6.95;80.72;101100.67;107488;1251;97926;-71
2024/03/12 07:01:45;;;;;;;36.70;14.00;;;;;;;6.98;80.82;101104.69;107446;1253;97759;-72
2024/03/12 07:04:13;;;;;;;26.30;11.30;;;;;;;7.01;80.90;101121.45;107581;1250;110710;-72
2024/03/12 07:06:44;;;;;;;32.90;12.60;;;;;;;7.01;80.70;101120.53;107513;1254;108151;-68
2024/03/12 07:09:22;;;;;;;30.40;13.60;;;;;;;7.00;80.83;101117.20;107491;1252;108245;-71
2024/03/12 07:11:54;;;;;;;31.40;13.10;;;;;;;6.98;80.76;101118.43;107530;1250;97854;-71
2024/03/12 07:14:30;;;;;;;26.70;11.70;;;;;;;6.95;81.10;101113.47;107464;1254;98402;-71
2024/03/12 07:16:59;;;;;;;26.00;12.70;;;;;;;6.89;81.49;101119.17;107550;1250;110610;-71
2024/03/12 07:19:32;;;;;;;26.70;12.10;;;;;;;6.87;81.38;101115.40;107421;1254;107685;-69
2024/03/12 07:22:01;;;;;;;36.70;12.60;;;;;;;6.87;81.46;101118.77;107423;1254;108653;-70
2024/03/12 07:24:29;;;;;;;28.70;12.30;;;;;;;6.87;81.81;101113.83;107354;1254;98021;-69
2024/03/12 07:26:59;;;;;;;26.10;12.20;;;;;;;6.86;82.13;101113.38;107484;1251;97839;-71
2024/03/12 07:29:27;;;;;;;27.90;12.30;;;;;;;6.81;82.47;101107.08;107573;1250;111203;-68
2024/03/12 07:31:56;;;;;;;27.10;12.00;;;;;;;6.81;82.55;101101.23;107528;1250;108683;-69
2024/03/12 07:34:25;;;;;;;28.40;11.20;;;;;;;6.84;82.75;101100.30;107531;1250;108309;-68
2024/03/12 07:36:53;;;;;;;25.60;12.30;;;;;;;6.87;82.96;101101.34;107552;1250;97915;-70
2024/03/12 07:39:31;;;;;;;22.90;11.60;;;;;;;6.91;82.94;101099.11;107550;1250;98395;-68
2024/03/12 07:42:09;;;;;;;25.70;11.20;;;;;;;6.93;82.97;101101.66;107595;1251;111664;-70
2024/03/12 07:44:44;;;;;;;24.30;11.20;;;;;;;6.96;82.92;101098.10;107653;1250;108925;-73
2024/03/12 07:47:13;;;;;;;23.30;11.90;;;;;;;7.00;83.11;101099.23;107657;1248;108520;-71
2024/03/12 07:49:42;;;;;;;27.80;11.50;;;;;;;7.04;83.05;101096.28;106851;1250;919273;-72
2024/03/12 07:52:11;;;;;;;24.10;11.30;;;;;;;7.08;82.77;101096.52;107520;1250;97928;-69
2024/03/12 07:54:40;;;;;;;27.90;11.10;;;;;;;7.04;82.91;101097.14;107617;1250;111299;-71
2024/03/12 07:57:09;;;;;;;31.10;11.70;;;;;;;7.04;82.75;101094.99;107571;1251;108388;-71
2024/03/12 07:59:37;;;;;;;25.60;12.20;;;;;;;7.01;83.15;101093.78;107533;1254;107889;-70
2024/03/12 08:02:11;;;;;;;26.20;12.60;;;;;;;7.00;83.06;101094.24;107594;1250;97925;-70
2024/03/12 08:04:43;;;;;;;25.50;11.90;;;;;;;7.00;83.03;101090.84;107623;1250;98414;-71
2024/03/12 08:07:13;;;;;;;26.00;13.30;;;;;;;7.02;83.22;101091.97;107525;1251;111208;-71
2024/03/12 08:09:44;;;;;;;32.70;13.60;;;;;;;7.04;83.26;101085.40;107611;1250;107662;-76
2024/03/12 08:12:13;;;;;;;27.50;11.10;;;;;;;7.06;83.28;101085.77;107799;1248;108332;-69
2024/03/12 08:14:45;;;;;;;32.00;13.80;;;;;;;7.11;83.16;101092.45;107606;1251;97842;-69
2024/03/12 08:17:13;;;;;;;36.00;13.10;;;;;;;7.16;83.42;101091.39;107606;1254;97702;-68
2024/03/12 08:19:44;;;;;;;35.60;12.40;;;;;;;7.20;83.57;101087.71;107595;1250;111275;-69
2024/03/12 08:22:13;;;;;;;34.60;12.90;;;;;;;7.22;83.44;101090.04;107568;1250;108378;-67
2024/03/12 08:24:43;;;;;;;29.30;11.70;;;;;;;7.27;83.12;101088.27;107569;1250;108347;-68
2024/03/12 08:27:12;;;;;;;27.70;13.70;;;;;;;7.28;83.13;101083.74;107540;1250;97842;-68
2024/03/12 08:29:41;;;;;;;32.40;13.70;;;;;;;7.28;83.01;101080.20;107653;1250;98454;-68
2024/03/12 08:32:09;;;;;;;31.30;12.80;;;;;;;7.23;83.04;101082.86;107627;1250;111793;-68
2024/03/12 08:34:38;;;;;;;33.90;13.20;;;;;;;7.21;83.47;101083.17;107591;1250;107094;-71
2024/03/12 08:37:09;;;;;;;33.90;13.00;;;;;;;7.17;83.61;101081.64;107573;1253;108595;-72
2024/03/12 08:39:37;;;;;;;30.20;11.90;;;;;;;7.19;83.70;101076.70;107512;1251;97943;-71
2024/03/12 08:42:09;;;;;;;29.80;13.30;;;;;;;7.22;83.87;101075.41;107617;1250;97841;-73
2024/03/12 08:44:38;;;;;;;30.20;11.50;;;;;;;7.23;83.64;101076.97;107582;1250;110937;-70
2024/03/12 08:47:08;;;;;;;24.20;11.30;;;;;;;7.23;83.62;101071.08;107587;1251;108372;-68
2024/03/12 08:49:38;;;;;;;24.00;11.50;;;;;;;7.26;83.64;101063.91;107633;1250;108310;-68
2024/03/12 08:52:09;;;;;;;26.30;13.00;;;;;;;7.28;83.34;101058.26;107599;1250;97838;-68
2024/03/12 08:54:37;;;;;;;22.20;11.90;;;;;;;7.26;83.58;101058.00;107630;1250;98450;-69
2024/03/12 08:57:07;;;;;;;30.30;12.80;;;;;;;7.24;83.72;101058.92;107565;1251;111402;-69
2024/03/12 08:59:35;;;;;;;31.20;12.20;;;;;;;7.21;83.63;101058.55;107615;1250;108678;-71
2024/03/12 09:02:05;;;;;;;24.30;11.10;;;;;;;7.21;83.96;101052.10;107607;1250;107654;-71
2024/03/12 09:04:34;;;;;;;24.10;11.80;;;;;;;7.19;84.12;101054.21;107623;1250;97902;-73
2024/03/12 09:07:03;;;;;;;24.60;11.90;;;;;;;7.19;84.31;101051.38;107596;1250;98989;-71
2024/03/12 09:09:31;;;;;;;23.90;11.80;;;;;;;7.18;84.25;101051.75;107487;1251;111155;-67
2024/03/12 09:12:00;;;;;;;30.40;12.30;;;;;;;7.22;84.17;101056.51;107601;1253;108707;-69
2024/03/12 09:14:30;;;;;;;21.60;10.70;;;;;;;7.23;84.33;101055.95;107591;1248;108795;-70
2024/03/12 09:16:58;;;;;;;25.30;12.10;;;;;;;7.24;84.27;101055.31;107504;1251;97732;-68
2024/03/12 09:19:27;;;;;;;26.70;13.40;;;;;;;7.26;84.17;101055.88;107573;1250;97837;-67
2024/03/12 09:21:58;;;;;;;24.30;12.10;;;;;;;7.24;83.92;101052.83;107518;1250;111035;-68
2024/03/12 09:24:27;;;;;;;24.90;12.10;;;;;;;7.20;84.23;101046.66;107525;1251;107501;-68
2024/03/12 09:26:55;;;;;;;20.90;11.10;;;;;;;7.20;84.06;101044.14;107608;1251;108837;-69
2024/03/12 09:29:24;;;;;;;21.30;10.90;;;;;;;7.19;84.49;101039.92;107574;1248;97714;-68
2024/03/12 09:31:53;;;;;;;25.00;10.50;;;;;;;7.21;85.13;101036.61;107644;1250;97862;-69
2024/03/12 09:34:21;;;;;;;23.70;10.90;;;;;;;7.24;85.01;101038.53;107525;1250;112316;-68
2024/03/12 09:36:49;;;;;;;25.00;12.20;;;;;;;7.28;84.93;101040.92;107519;1251;108670;-68
2024/03/12 09:39:18;;;;;;;22.30;11.20;;;;;;;7.28;85.02;101037.58;107567;1250;107638;-67
2024/03/12 09:41:53;;;;;;;26.00;11.40;;;;;;;7.30;85.12;101032.44;107561;1250;97904;-69
2024/03/12 09:44:21;;;;;;;24.40;11.70;;;;;;;7.30;84.99;101032.56;107533;1250;97834;-67
2024/03/12 09:46:51;;;;;;;24.20;11.00;;;;;;;7.27;84.73;101021.73;107679;1250;112165;-68
2024/03/12 09:49:19;;;;;;;26.40;10.80;;;;;;;7.23;84.86;101018.13;107554;1248;108574;-68
2024/03/12 09:51:48;;;;;;;22.80;11.30;;;;;;;7.20;84.91;101014.90;107600;1251;107832;-68
2024/03/12 09:54:18;;;;;;;19.00;9.70;;;;;;;7.20;85.28;101013.64;107560;1252;97831;-72
2024/03/12 09:56:46;;;;;;;26.80;12.00;;;;;;;7.20;85.18;101007.08;107511;1253;97773;-71
2024/03/12 09:59:15;;;;;;;54.60;24.80;;;;;;;7.24;85.48;101007.70;107597;1250;111760;-71
2024/03/12 10:01:44;;;;;;;25.70;12.70;;;;;;;7.28;85.51;101010.23;107569;1250;107949;-73
2024/03/12 10:04:15;;;;;;;22.20;9.90;;;;;;;7.35;85.62;101007.94;107638;1250;108456;-67
2024/03/12 10:06:44;;;;;;;19.30;10.10;;;;;;;7.43;85.61;101001.16;107561;1251;97913;-72
2024/03/12 10:09:17;;;;;;;19.70;10.50;;;;;;;7.46;85.38;100997.36;107644;1250;97911;-72
2024/03/12 10:11:45;;;;;;;19.80;9.70;;;;;;;7.43;85.15;101001.19;107669;1250;111306;-72
2024/03/12 10:14:17;;;;;;;20.70;10.70;;;;;;;7.39;85.10;100995.89;107576;1248;107661;-72
2024/03/12 10:16:46;;;;;;;21.90;9.90;;;;;;;7.35;85.10;100996.20;107503;1250;107964;-75
2024/03/12 10:19:15;;;;;;;21.60;10.50;;;;;;;7.30;85.68;100997.29;107542;1254;97690;-71
2024/03/12 10:21:49;;;;;;;19.50;10.50;;;;;;;7.28;85.77;100991.55;107655;1251;97803;-72
2024/03/12 10:24:21;;;;;;;17.50;9.70;;;;;;;7.28;86.20;100983.09;107486;1251;112204;-70
2024/03/12 10:27:02;;;;;;;18.00;10.40;;;;;;;7.32;86.70;100975.91;107632;1250;108601;-72
2024/03/12 10:29:35;;;;;;;21.40;10.50;;;;;;;7.37;87.02;100968.60;107516;1251;108670;-71
2024/03/12 10:32:18;;;;;;;19.60;9.90;;;;;;;7.44;87.11;100959.52;107623;1251;97930;-72
2024/03/12 10:34:48;;;;;;;23.40;9.60;;;;;;;7.47;87.28;100949.27;107668;1255;97941;-73
2024/03/12 10:37:34;;;;;;;21.30;11.10;;;;;;;7.47;87.20;100946.98;107506;1254;111166;-71
2024/03/12 10:40:15;;;;;;;17.50;10.00;;;;;;;7.44;86.78;100949.16;107488;1252;107792;-72
2024/03/12 10:43:05;;;;;;;21.60;9.90;;;;;;;7.39;87.08;100945.42;107466;1253;108056;-71
2024/03/12 10:45:35;;;;;;;17.80;9.80;;;;;;;7.39;87.03;100937.42;107547;1252;97840;-71
2024/03/12 10:48:09;;;;;;;15.70;10.20;;;;;;;7.38;86.93;100933.52;107623;1251;98009;-71
2024/03/12 10:50:40;;;;;;;;;;;;;;;7.38;86.94;100925.85;107546;1251;111818;-73
2024/03/12 10:53:13;;;;;;;20.30;11.20;;;;;;;7.41;87.21;100924.05;107598;1253;107272;-72
2024/03/12 10:55:42;;;;;;;17.50;9.40;;;;;;;7.49;87.45;100919.70;107501;1255;107303;-71
2024/03/12 10:58:14;;;;;;;14.70;8.50;;;;;;;7.55;87.30;100915.89;107516;1254;97832;-73
2024/03/12 11:00:44;;;;;;;14.90;9.40;;;;;;;7.60;87.32;100915.71;107462;1252;97733;-73
2024/03/12 11:03:13;;;;;;;20.70;8.70;;;;;;;7.60;86.74;100911.73;107502;1253;110283;-71
2024/03/12 11:05:43;;;;;;;17.20;8.40;;;;;;;7.59;86.54;100910.80;107534;1250;107767;-71
2024/03/12 11:08:14;;;;;;;19.00;8.10;;;;;;;7.55;86.22;100911.45;107460;1251;107158;-71
2024/03/12 11:10:44;;;;;;;18.10;7.80;;;;;;;7.50;86.26;100909.98;107446;1250;97919;-71
2024/03/12 11:13:16;;;;;;;14.00;8.30;;;;;;;7.46;86.48;100908.14;107576;1253;97931;-70
2024/03/12 11:15:45;;;;;;;14.70;8.40;;;;;;;7.42;86.52;100911.65;107547;1252;111296;-70
2024/03/12 11:18:35;;;;;;;18.00;8.80;;;;;;;7.38;86.66;100914.42;107614;1251;107559;-68
2024/03/12 11:21:04;;;;;;;31.00;16.10;;;;;;;7.40;86.84;100913.73;107545;1250;108693;-67
2024/03/12 11:23:33;;;;;;;27.80;11.30;;;;;;;7.49;87.27;100910.28;107464;1251;97821;-66
2024/03/12 11:26:04;;;;;;;67.20;31.50;;;;;;;7.53;87.01;100902.45;107541;1251;98371;-68
2024/03/12 11:28:49;;;;;;;17.60;9.00;;;;;;;7.58;87.48;100899.98;107550;1251;111064;-73